sensor_id;sensor_type;location;lat;lon;timestamp;P1;durP1;ratioP1;P2;durP2;ratioP2
6374;SDS011;35400;45.472;-122.822;2023-07-02T00:00:03;1.73;;;1.15;;
6374;SDS011;35400;45.472;-122.822;2023-07-02T00:02:34;1.45;;;1.23;;
6374;SDS011;35400;45.472;-122.822;2023-07-02T00:05:02;1.20;;;1.10;;
6374;SDS011;35400;45.472;-122.822;2023-07-02T00:07:29;1.90;;;1.15;;
6374;SDS011;35400;45.472;-122.822;2023-07-02T00:09:56;2.00;;;1.20;;
6374;SDS011;35400;45.472;-122.822;2023-07-02T00:12:23;3.70;;;1.25;;
6374;SDS011;35400;45.472;-122.822;2023-07-02T00:14:50;1.48;;;1.10;;
6374;SDS011;35400;45.472;-122.822;2023-07-02T00:17:18;2.10;;;1.27;;
6374;SDS011;35400;45.472;-122.822;2023-07-02T00:19:46;1.75;;;0.90;;
6374;SDS011;35400;45.472;-122.822;2023-07-02T00:22:17;4.65;;;1.35;;
6374;SDS011;35400;45.472;-122.822;2023-07-02T00:24:44;2.33;;;1.20;;
6374;SDS011;35400;45.472;-122.822;2023-07-02T00:27:10;2.00;;;1.10;;
6374;SDS011;35400;45.472;-122.822;2023-07-02T00:29:37;1.83;;;1.17;;
6374;SDS011;35400;45.472;-122.822;2023-07-02T00:32:04;2.50;;;1.20;;
6374;SDS011;35400;45.472;-122.822;2023-07-02T00:34:31;2.58;;;1.10;;
6374;SDS011;35400;45.472;-122.822;2023-07-02T00:36:58;1.30;;;1.20;;
6374;SDS011;35400;45.472;-122.822;2023-07-02T00:39:25;1.65;;;1.00;;
6374;SDS011;35400;45.472;-122.822;2023-07-02T00:41:52;2.28;;;1.27;;
6374;SDS011;35400;45.472;-122.822;2023-07-02T00:44:19;1.70;;;1.30;;
6374;SDS011;35400;45.472;-122.822;2023-07-02T00:46:45;2.08;;;1.20;;
6374;SDS011;35400;45.472;-122.822;2023-07-02T00:49:12;2.78;;;1.20;;
6374;SDS011;35400;45.472;-122.822;2023-07-02T00:51:40;1.23;;;1.13;;
6374;SDS011;35400;45.472;-122.822;2023-07-02T00:54:07;1.20;;;1.10;;
6374;SDS011;35400;45.472;-122.822;2023-07-02T00:56:33;1.38;;;1.00;;
6374;SDS011;35400;45.472;-122.822;2023-07-02T00:59:00;1.35;;;1.25;;
6374;SDS011;35400;45.472;-122.822;2023-07-02T01:01:27;2.05;;;1.10;;
6374;SDS011;35400;45.472;-122.822;2023-07-02T01:03:56;5.60;;;1.27;;
6374;SDS011;35400;45.472;-122.822;2023-07-02T01:06:28;1.85;;;1.20;;
6374;SDS011;35400;45.472;-122.822;2023-07-02T01:09:01;1.05;;;0.98;;
6374;SDS011;35400;45.472;-122.822;2023-07-02T01:11:36;1.17;;;1.00;;
6374;SDS011;35400;45.472;-122.822;2023-07-02T01:14:24;2.25;;;1.50;;
6374;SDS011;35400;45.472;-122.822;2023-07-02T01:16:53;1.33;;;1.17;;
6374;SDS011;35400;45.472;-122.822;2023-07-02T01:19:28;3.13;;;1.45;;
6374;SDS011;35400;45.472;-122.822;2023-07-02T01:22:19;1.23;;;1.00;;
6374;SDS011;35400;45.472;-122.822;2023-07-02T01:24:50;3.45;;;1.50;;
6374;SDS011;35400;45.472;-122.822;2023-07-02T01:27:18;1.98;;;1.20;;
6374;SDS011;35400;45.472;-122.822;2023-07-02T01:29:46;1.38;;;0.98;;
6374;SDS011;35400;45.472;-122.822;2023-07-02T01:32:17;1.23;;;1.08;;
6374;SDS011;35400;45.472;-122.822;2023-07-02T01:34:45;0.85;;;0.85;;
6374;SDS011;35400;45.472;-122.822;2023-07-02T01:37:15;1.27;;;1.15;;
6374;SDS011;35400;45.472;-122.822;2023-07-02T01:39:45;0.93;;;0.93;;
6374;SDS011;35400;45.472;-122.822;2023-07-02T01:42:15;2.15;;;1.15;;
6374;SDS011;35400;45.472;-122.822;2023-07-02T01:44:45;0.82;;;0.82;;
6374;SDS011;35400;45.472;-122.822;2023-07-02T01:47:13;0.77;;;0.77;;
6374;SDS011;35400;45.472;-122.822;2023-07-02T01:49:41;1.00;;;0.95;;
6374;SDS011;35400;45.472;-122.822;2023-07-02T01:52:08;2.20;;;0.80;;
6374;SDS011;35400;45.472;-122.822;2023-07-02T01:54:35;1.55;;;0.90;;
6374;SDS011;35400;45.472;-122.822;2023-07-02T01:57:02;1.17;;;1.10;;
6374;SDS011;35400;45.472;-122.822;2023-07-02T01:59:30;0.80;;;0.80;;
6374;SDS011;35400;45.472;-122.822;2023-07-02T02:01:57;1.10;;;0.90;;
6374;SDS011;35400;45.472;-122.822;2023-07-02T02:04:24;2.22;;;1.00;;
6374;SDS011;35400;45.472;-122.822;2023-07-02T02:06:52;1.08;;;1.05;;
6374;SDS011;35400;45.472;-122.822;2023-07-02T02:09:19;1.48;;;1.05;;
6374;SDS011;35400;45.472;-122.822;2023-07-02T02:11:49;1.77;;;0.88;;
6374;SDS011;35400;45.472;-122.822;2023-07-02T02:14:18;1.58;;;0.90;;
6374;SDS011;35400;45.472;-122.822;2023-07-02T02:16:45;2.63;;;1.10;;
6374;SDS011;35400;45.472;-122.822;2023-07-02T02:19:12;1.02;;;0.85;;
6374;SDS011;35400;45.472;-122.822;2023-07-02T02:21:43;1.10;;;1.00;;
6374;SDS011;35400;45.472;-122.822;2023-07-02T02:24:10;1.73;;;1.02;;
6374;SDS011;35400;45.472;-122.822;2023-07-02T02:26:37;2.08;;;0.82;;
6374;SDS011;35400;45.472;-122.822;2023-07-02T02:29:04;0.85;;;0.70;;
6374;SDS011;35400;45.472;-122.822;2023-07-02T02:31:31;1.40;;;0.82;;
6374;SDS011;35400;45.472;-122.822;2023-07-02T02:33:59;1.38;;;0.90;;
6374;SDS011;35400;45.472;-122.822;2023-07-02T02:36:26;1.95;;;0.93;;
6374;SDS011;35400;45.472;-122.822;2023-07-02T02:38:53;0.93;;;0.80;;
6374;SDS011;35400;45.472;-122.822;2023-07-02T02:41:20;0.63;;;0.63;;
6374;SDS011;35400;45.472;-122.822;2023-07-02T02:43:50;2.85;;;0.95;;
6374;SDS011;35400;45.472;-122.822;2023-07-02T02:46:22;2.03;;;0.95;;
6374;SDS011;35400;45.472;-122.822;2023-07-02T02:48:50;1.95;;;0.90;;
6374;SDS011;35400;45.472;-122.822;2023-07-02T02:51:20;2.38;;;0.88;;
6374;SDS011;35400;45.472;-122.822;2023-07-02T02:53:46;0.82;;;0.75;;
6374;SDS011;35400;45.472;-122.822;2023-07-02T02:56:13;0.82;;;0.73;;
6374;SDS011;35400;45.472;-122.822;2023-07-02T02:58:40;1.00;;;0.70;;
6374;SDS011;35400;45.472;-122.822;2023-07-02T03:01:07;1.20;;;0.93;;
6374;SDS011;35400;45.472;-122.822;2023-07-02T03:03:41;1.58;;;0.93;;
6374;SDS011;35400;45.472;-122.822;2023-07-02T03:06:14;1.90;;;0.90;;
6374;SDS011;35400;45.472;-122.822;2023-07-02T03:08:41;1.10;;;0.75;;
6374;SDS011;35400;45.472;-122.822;2023-07-02T03:11:08;2.08;;;0.70;;
6374;SDS011;35400;45.472;-122.822;2023-07-02T03:13:35;1.80;;;1.10;;
6374;SDS011;35400;45.472;-122.822;2023-07-02T03:16:02;1.98;;;0.80;;
6374;SDS011;35400;45.472;-122.822;2023-07-02T03:18:29;1.45;;;0.80;;
6374;SDS011;35400;45.472;-122.822;2023-07-02T03:20:55;0.98;;;0.88;;
6374;SDS011;35400;45.472;-122.822;2023-07-02T03:23:22;1.65;;;0.93;;
6374;SDS011;35400;45.472;-122.822;2023-07-02T03:25:49;1.20;;;1.10;;
6374;SDS011;35400;45.472;-122.822;2023-07-02T03:28:16;1.52;;;1.40;;
6374;SDS011;35400;45.472;-122.822;2023-07-02T03:30:43;1.58;;;1.23;;
6374;SDS011;35400;45.472;-122.822;2023-07-02T03:33:10;0.90;;;0.82;;
6374;SDS011;35400;45.472;-122.822;2023-07-02T03:35:37;1.83;;;1.08;;
6374;SDS011;35400;45.472;-122.822;2023-07-02T03:38:06;1.45;;;0.70;;
6374;SDS011;35400;45.472;-122.822;2023-07-02T03:40:33;0.75;;;0.70;;
6374;SDS011;35400;45.472;-122.822;2023-07-02T03:43:00;2.20;;;0.70;;
6374;SDS011;35400;45.472;-122.822;2023-07-02T03:45:27;2.08;;;1.00;;
6374;SDS011;35400;45.472;-122.822;2023-07-02T03:47:54;0.70;;;0.70;;
6374;SDS011;35400;45.472;-122.822;2023-07-02T03:50:20;0.50;;;0.50;;
6374;SDS011;35400;45.472;-122.822;2023-07-02T03:52:48;1.15;;;0.85;;
6374;SDS011;35400;45.472;-122.822;2023-07-02T03:55:15;1.20;;;1.10;;
6374;SDS011;35400;45.472;-122.822;2023-07-02T03:57:41;1.27;;;1.15;;
6374;SDS011;35400;45.472;-122.822;2023-07-02T04:00:08;2.72;;;1.45;;
6374;SDS011;35400;45.472;-122.822;2023-07-02T04:02:42;1.45;;;1.02;;
6374;SDS011;35400;45.472;-122.822;2023-07-02T04:05:09;1.08;;;0.95;;
6374;SDS011;35400;45.472;-122.822;2023-07-02T04:07:36;0.77;;;0.77;;
6374;SDS011;35400;45.472;-122.822;2023-07-02T04:10:02;0.80;;;0.75;;
6374;SDS011;35400;45.472;-122.822;2023-07-02T04:12:30;1.83;;;0.80;;
6374;SDS011;35400;45.472;-122.822;2023-07-02T04:14:57;0.70;;;0.70;;
6374;SDS011;35400;45.472;-122.822;2023-07-02T04:17:24;0.80;;;0.80;;
6374;SDS011;35400;45.472;-122.822;2023-07-02T04:19:53;1.60;;;0.98;;
6374;SDS011;35400;45.472;-122.822;2023-07-02T04:22:21;0.70;;;0.70;;
6374;SDS011;35400;45.472;-122.822;2023-07-02T04:24:48;0.93;;;0.73;;
6374;SDS011;35400;45.472;-122.822;2023-07-02T04:27:15;0.60;;;0.60;;
6374;SDS011;35400;45.472;-122.822;2023-07-02T04:29:45;1.13;;;0.68;;
6374;SDS011;35400;45.472;-122.822;2023-07-02T04:32:12;0.98;;;0.70;;
6374;SDS011;35400;45.472;-122.822;2023-07-02T04:34:39;1.48;;;0.80;;
6374;SDS011;35400;45.472;-122.822;2023-07-02T04:37:08;2.10;;;0.68;;
6374;SDS011;35400;45.472;-122.822;2023-07-02T04:39:35;0.85;;;0.77;;
6374;SDS011;35400;45.472;-122.822;2023-07-02T04:42:02;2.35;;;0.90;;
6374;SDS011;35400;45.472;-122.822;2023-07-02T04:44:29;1.45;;;1.00;;
6374;SDS011;35400;45.472;-122.822;2023-07-02T04:47:00;1.45;;;0.85;;
6374;SDS011;35400;45.472;-122.822;2023-07-02T04:49:27;0.65;;;0.65;;
6374;SDS011;35400;45.472;-122.822;2023-07-02T04:51:54;0.98;;;0.85;;
6374;SDS011;35400;45.472;-122.822;2023-07-02T04:54:21;1.35;;;1.10;;
6374;SDS011;35400;45.472;-122.822;2023-07-02T04:56:48;1.10;;;1.00;;
6374;SDS011;35400;45.472;-122.822;2023-07-02T04:59:16;1.20;;;1.10;;
6374;SDS011;35400;45.472;-122.822;2023-07-02T05:01:43;1.00;;;1.00;;
6374;SDS011;35400;45.472;-122.822;2023-07-02T05:04:10;1.30;;;1.10;;
6374;SDS011;35400;45.472;-122.822;2023-07-02T05:06:37;2.13;;;1.52;;
6374;SDS011;35400;45.472;-122.822;2023-07-02T05:09:04;1.65;;;1.55;;
6374;SDS011;35400;45.472;-122.822;2023-07-02T05:11:31;1.42;;;1.33;;
6374;SDS011;35400;45.472;-122.822;2023-07-02T05:13:57;1.00;;;1.00;;
6374;SDS011;35400;45.472;-122.822;2023-07-02T05:16:24;0.98;;;0.90;;
6374;SDS011;35400;45.472;-122.822;2023-07-02T05:18:51;0.90;;;0.90;;
6374;SDS011;35400;45.472;-122.822;2023-07-02T05:21:18;0.60;;;0.60;;
6374;SDS011;35400;45.472;-122.822;2023-07-02T05:23:46;0.90;;;0.90;;
6374;SDS011;35400;45.472;-122.822;2023-07-02T05:26:14;1.33;;;0.95;;
6374;SDS011;35400;45.472;-122.822;2023-07-02T05:28:41;1.60;;;0.90;;
6374;SDS011;35400;45.472;-122.822;2023-07-02T05:31:08;0.88;;;0.73;;
6374;SDS011;35400;45.472;-122.822;2023-07-02T05:33:35;1.30;;;1.10;;
6374;SDS011;35400;45.472;-122.822;2023-07-02T05:36:01;0.75;;;0.75;;
6374;SDS011;35400;45.472;-122.822;2023-07-02T05:38:28;1.55;;;0.77;;
6374;SDS011;35400;45.472;-122.822;2023-07-02T05:40:55;0.80;;;0.80;;
6374;SDS011;35400;45.472;-122.822;2023-07-02T05:43:22;1.80;;;1.00;;
6374;SDS011;35400;45.472;-122.822;2023-07-02T05:45:50;0.77;;;0.77;;
6374;SDS011;35400;45.472;-122.822;2023-07-02T05:48:18;1.63;;;0.80;;
6374;SDS011;35400;45.472;-122.822;2023-07-02T05:50:44;1.15;;;0.82;;
6374;SDS011;35400;45.472;-122.822;2023-07-02T05:53:11;0.90;;;0.90;;
6374;SDS011;35400;45.472;-122.822;2023-07-02T05:55:38;1.10;;;0.90;;
6374;SDS011;35400;45.472;-122.822;2023-07-02T05:58:05;0.90;;;0.83;;
6374;SDS011;35400;45.472;-122.822;2023-07-02T06:00:32;0.87;;;0.83;;
6374;SDS011;35400;45.472;-122.822;2023-07-02T06:02:59;1.37;;;1.07;;
6374;SDS011;35400;45.472;-122.822;2023-07-02T06:05:26;2.20;;;0.90;;
6374;SDS011;35400;45.472;-122.822;2023-07-02T06:07:53;0.87;;;0.87;;
6374;SDS011;35400;45.472;-122.822;2023-07-02T06:10:20;1.00;;;0.90;;
6374;SDS011;35400;45.472;-122.822;2023-07-02T06:12:47;0.87;;;0.70;;
6374;SDS011;35400;45.472;-122.822;2023-07-02T06:15:13;0.83;;;0.80;;
6374;SDS011;35400;45.472;-122.822;2023-07-02T06:17:40;2.07;;;0.70;;
6374;SDS011;35400;45.472;-122.822;2023-07-02T06:20:07;0.93;;;0.80;;
6374;SDS011;35400;45.472;-122.822;2023-07-02T06:22:34;1.00;;;1.00;;
6374;SDS011;35400;45.472;-122.822;2023-07-02T06:25:01;1.80;;;0.70;;
6374;SDS011;35400;45.472;-122.822;2023-07-02T06:27:28;0.87;;;0.67;;
6374;SDS011;35400;45.472;-122.822;2023-07-02T06:29:55;0.50;;;0.50;;
6374;SDS011;35400;45.472;-122.822;2023-07-02T06:32:22;0.97;;;0.70;;
6374;SDS011;35400;45.472;-122.822;2023-07-02T06:34:48;1.43;;;0.70;;
6374;SDS011;35400;45.472;-122.822;2023-07-02T06:37:15;0.87;;;0.60;;
6374;SDS011;35400;45.472;-122.822;2023-07-02T06:39:42;0.67;;;0.60;;
6374;SDS011;35400;45.472;-122.822;2023-07-02T06:42:09;1.37;;;0.50;;
6374;SDS011;35400;45.472;-122.822;2023-07-02T06:44:38;0.70;;;0.70;;
6374;SDS011;35400;45.472;-122.822;2023-07-02T06:47:06;1.00;;;0.63;;
6374;SDS011;35400;45.472;-122.822;2023-07-02T06:49:33;1.50;;;0.77;;
6374;SDS011;35400;45.472;-122.822;2023-07-02T06:52:00;1.60;;;0.80;;
6374;SDS011;35400;45.472;-122.822;2023-07-02T06:54:28;0.70;;;0.70;;
6374;SDS011;35400;45.472;-122.822;2023-07-02T06:56:55;0.73;;;0.60;;
6374;SDS011;35400;45.472;-122.822;2023-07-02T06:59:22;1.70;;;0.60;;
6374;SDS011;35400;45.472;-122.822;2023-07-02T07:01:50;0.70;;;0.70;;
6374;SDS011;35400;45.472;-122.822;2023-07-02T07:04:17;1.17;;;0.60;;
6374;SDS011;35400;45.472;-122.822;2023-07-02T07:06:43;1.27;;;0.60;;
6374;SDS011;35400;45.472;-122.822;2023-07-02T07:09:10;0.70;;;0.70;;
6374;SDS011;35400;45.472;-122.822;2023-07-02T07:11:37;1.27;;;0.70;;
6374;SDS011;35400;45.472;-122.822;2023-07-02T07:14:04;0.57;;;0.57;;
6374;SDS011;35400;45.472;-122.822;2023-07-02T07:16:31;0.70;;;0.70;;
6374;SDS011;35400;45.472;-122.822;2023-07-02T07:18:58;1.23;;;0.70;;
6374;SDS011;35400;45.472;-122.822;2023-07-02T07:21:25;0.60;;;0.60;;
6374;SDS011;35400;45.472;-122.822;2023-07-02T07:23:51;0.60;;;0.60;;
6374;SDS011;35400;45.472;-122.822;2023-07-02T07:26:18;2.20;;;0.70;;
6374;SDS011;35400;45.472;-122.822;2023-07-02T07:28:45;0.60;;;0.60;;
6374;SDS011;35400;45.472;-122.822;2023-07-02T07:31:12;1.37;;;0.60;;
6374;SDS011;35400;45.472;-122.822;2023-07-02T07:33:39;0.60;;;0.60;;
6374;SDS011;35400;45.472;-122.822;2023-07-02T07:36:05;0.63;;;0.60;;
6374;SDS011;35400;45.472;-122.822;2023-07-02T07:38:32;0.77;;;0.60;;
6374;SDS011;35400;45.472;-122.822;2023-07-02T07:40:59;0.60;;;0.60;;
6374;SDS011;35400;45.472;-122.822;2023-07-02T07:43:26;1.27;;;0.60;;
6374;SDS011;35400;45.472;-122.822;2023-07-02T07:45:53;0.60;;;0.60;;
6374;SDS011;35400;45.472;-122.822;2023-07-02T07:48:20;0.77;;;0.70;;
6374;SDS011;35400;45.472;-122.822;2023-07-02T07:50:47;1.00;;;0.70;;
6374;SDS011;35400;45.472;-122.822;2023-07-02T07:53:14;0.83;;;0.83;;
6374;SDS011;35400;45.472;-122.822;2023-07-02T07:55:41;0.80;;;0.80;;
6374;SDS011;35400;45.472;-122.822;2023-07-02T07:58:08;0.70;;;0.60;;
6374;SDS011;35400;45.472;-122.822;2023-07-02T08:00:34;1.50;;;0.80;;
6374;SDS011;35400;45.472;-122.822;2023-07-02T08:03:01;0.80;;;0.80;;
6374;SDS011;35400;45.472;-122.822;2023-07-02T08:05:30;0.40;;;0.40;;
6374;SDS011;35400;45.472;-122.822;2023-07-02T08:07:56;1.63;;;0.60;;
6374;SDS011;35400;45.472;-122.822;2023-07-02T08:10:24;1.07;;;0.43;;
6374;SDS011;35400;45.472;-122.822;2023-07-02T08:12:53;0.60;;;0.60;;
6374;SDS011;35400;45.472;-122.822;2023-07-02T08:15:20;1.27;;;0.70;;
6374;SDS011;35400;45.472;-122.822;2023-07-02T08:17:47;0.60;;;0.60;;
6374;SDS011;35400;45.472;-122.822;2023-07-02T08:20:14;1.00;;;0.60;;
6374;SDS011;35400;45.472;-122.822;2023-07-02T08:22:42;0.83;;;0.63;;
6374;SDS011;35400;45.472;-122.822;2023-07-02T08:25:09;0.83;;;0.70;;
6374;SDS011;35400;45.472;-122.822;2023-07-02T08:27:36;0.60;;;0.60;;
6374;SDS011;35400;45.472;-122.822;2023-07-02T08:30:03;0.97;;;0.80;;
6374;SDS011;35400;45.472;-122.822;2023-07-02T08:32:30;1.23;;;0.63;;
6374;SDS011;35400;45.472;-122.822;2023-07-02T08:34:58;1.53;;;0.70;;
6374;SDS011;35400;45.472;-122.822;2023-07-02T08:37:25;0.70;;;0.60;;
6374;SDS011;35400;45.472;-122.822;2023-07-02T08:39:51;0.50;;;0.50;;
6374;SDS011;35400;45.472;-122.822;2023-07-02T08:42:18;1.47;;;0.70;;
6374;SDS011;35400;45.472;-122.822;2023-07-02T08:44:46;0.57;;;0.50;;
6374;SDS011;35400;45.472;-122.822;2023-07-02T08:47:13;0.50;;;0.40;;
6374;SDS011;35400;45.472;-122.822;2023-07-02T08:49:41;0.40;;;0.40;;
6374;SDS011;35400;45.472;-122.822;2023-07-02T08:52:08;0.63;;;0.50;;
6374;SDS011;35400;45.472;-122.822;2023-07-02T08:54:35;0.53;;;0.50;;
6374;SDS011;35400;45.472;-122.822;2023-07-02T08:57:03;0.60;;;0.60;;
6374;SDS011;35400;45.472;-122.822;2023-07-02T08:59:31;1.03;;;0.77;;
6374;SDS011;35400;45.472;-122.822;2023-07-02T09:01:58;2.27;;;0.57;;
6374;SDS011;35400;45.472;-122.822;2023-07-02T09:04:25;0.60;;;0.60;;
6374;SDS011;35400;45.472;-122.822;2023-07-02T09:07:04;0.60;;;0.60;;
6374;SDS011;35400;45.472;-122.822;2023-07-02T09:09:45;0.90;;;0.60;;
6374;SDS011;35400;45.472;-122.822;2023-07-02T09:14:57;0.40;;;0.40;;
6374;SDS011;35400;45.472;-122.822;2023-07-02T09:17:28;0.50;;;0.30;;
6374;SDS011;35400;45.472;-122.822;2023-07-02T09:19:57;0.33;;;0.33;;
6374;SDS011;35400;45.472;-122.822;2023-07-02T09:22:30;0.80;;;0.50;;
6374;SDS011;35400;45.472;-122.822;2023-07-02T09:24:57;0.47;;;0.47;;
6374;SDS011;35400;45.472;-122.822;2023-07-02T09:27:35;0.40;;;0.40;;
6374;SDS011;35400;45.472;-122.822;2023-07-02T09:32:39;0.50;;;0.50;;
6374;SDS011;35400;45.472;-122.822;2023-07-02T09:35:06;0.60;;;0.57;;
6374;SDS011;35400;45.472;-122.822;2023-07-02T09:37:33;0.57;;;0.57;;
6374;SDS011;35400;45.472;-122.822;2023-07-02T09:40:00;0.60;;;0.60;;
6374;SDS011;35400;45.472;-122.822;2023-07-02T09:42:31;0.50;;;0.50;;
6374;SDS011;35400;45.472;-122.822;2023-07-02T09:44:59;0.50;;;0.50;;
6374;SDS011;35400;45.472;-122.822;2023-07-02T09:47:27;0.50;;;0.50;;
6374;SDS011;35400;45.472;-122.822;2023-07-02T09:50:03;0.70;;;0.70;;
6374;SDS011;35400;45.472;-122.822;2023-07-02T09:52:34;0.63;;;0.50;;
6374;SDS011;35400;45.472;-122.822;2023-07-02T09:55:01;0.50;;;0.50;;
6374;SDS011;35400;45.472;-122.822;2023-07-02T09:57:29;1.97;;;0.60;;
6374;SDS011;35400;45.472;-122.822;2023-07-02T09:59:59;0.43;;;0.43;;
6374;SDS011;35400;45.472;-122.822;2023-07-02T10:02:26;0.60;;;0.60;;
6374;SDS011;35400;45.472;-122.822;2023-07-02T10:04:53;0.60;;;0.60;;
6374;SDS011;35400;45.472;-122.822;2023-07-02T10:07:30;0.87;;;0.40;;
6374;SDS011;35400;45.472;-122.822;2023-07-02T10:10:01;0.50;;;0.50;;
6374;SDS011;35400;45.472;-122.822;2023-07-02T10:12:29;0.50;;;0.50;;
6374;SDS011;35400;45.472;-122.822;2023-07-02T10:14:57;0.40;;;0.40;;
6374;SDS011;35400;45.472;-122.822;2023-07-02T10:19:59;0.50;;;0.50;;
6374;SDS011;35400;45.472;-122.822;2023-07-02T10:22:47;0.50;;;0.50;;
6374;SDS011;35400;45.472;-122.822;2023-07-02T10:25:25;0.60;;;0.60;;
6374;SDS011;35400;45.472;-122.822;2023-07-02T10:27:56;1.00;;;0.43;;
6374;SDS011;35400;45.472;-122.822;2023-07-02T10:30:32;0.50;;;0.50;;
6374;SDS011;35400;45.472;-122.822;2023-07-02T10:33:09;0.70;;;0.70;;
6374;SDS011;35400;45.472;-122.822;2023-07-02T10:35:37;0.50;;;0.50;;
6374;SDS011;35400;45.472;-122.822;2023-07-02T10:38:07;0.40;;;0.40;;
6374;SDS011;35400;45.472;-122.822;2023-07-02T10:40:34;0.60;;;0.60;;
6374;SDS011;35400;45.472;-122.822;2023-07-02T10:43:00;0.40;;;0.40;;
6374;SDS011;35400;45.472;-122.822;2023-07-02T10:45:31;0.60;;;0.60;;
6374;SDS011;35400;45.472;-122.822;2023-07-02T10:47:59;0.50;;;0.50;;
6374;SDS011;35400;45.472;-122.822;2023-07-02T10:50:27;0.90;;;0.70;;
6374;SDS011;35400;45.472;-122.822;2023-07-02T10:52:56;0.60;;;0.50;;
6374;SDS011;35400;45.472;-122.822;2023-07-02T10:55:23;0.50;;;0.50;;
6374;SDS011;35400;45.472;-122.822;2023-07-02T10:58:02;1.33;;;0.77;;
6374;SDS011;35400;45.472;-122.822;2023-07-02T11:00:39;0.50;;;0.50;;
6374;SDS011;35400;45.472;-122.822;2023-07-02T11:03:20;0.50;;;0.50;;
6374;SDS011;35400;45.472;-122.822;2023-07-02T11:05:48;0.50;;;0.50;;
6374;SDS011;35400;45.472;-122.822;2023-07-02T11:08:15;1.67;;;0.50;;
6374;SDS011;35400;45.472;-122.822;2023-07-02T11:10:43;0.60;;;0.60;;
6374;SDS011;35400;45.472;-122.822;2023-07-02T11:13:10;0.40;;;0.33;;
6374;SDS011;35400;45.472;-122.822;2023-07-02T11:15:45;0.60;;;0.60;;
6374;SDS011;35400;45.472;-122.822;2023-07-02T11:18:16;1.03;;;0.70;;
6374;SDS011;35400;45.472;-122.822;2023-07-02T11:20:47;0.73;;;0.70;;
6374;SDS011;35400;45.472;-122.822;2023-07-02T11:23:18;1.83;;;0.87;;
6374;SDS011;35400;45.472;-122.822;2023-07-02T11:26:20;0.70;;;0.70;;
6374;SDS011;35400;45.472;-122.822;2023-07-02T11:28:50;0.40;;;0.40;;
6374;SDS011;35400;45.472;-122.822;2023-07-02T11:31:26;1.40;;;0.80;;
6374;SDS011;35400;45.472;-122.822;2023-07-02T11:33:53;0.63;;;0.50;;
6374;SDS011;35400;45.472;-122.822;2023-07-02T11:36:24;0.50;;;0.50;;
6374;SDS011;35400;45.472;-122.822;2023-07-02T11:38:51;0.60;;;0.60;;
6374;SDS011;35400;45.472;-122.822;2023-07-02T11:41:20;0.57;;;0.50;;
6374;SDS011;35400;45.472;-122.822;2023-07-02T11:43:47;1.87;;;0.60;;
6374;SDS011;35400;45.472;-122.822;2023-07-02T11:46:14;0.50;;;0.50;;
6374;SDS011;35400;45.472;-122.822;2023-07-02T11:48:41;0.97;;;0.80;;
6374;SDS011;35400;45.472;-122.822;2023-07-02T11:51:08;0.50;;;0.50;;
6374;SDS011;35400;45.472;-122.822;2023-07-02T11:53:35;0.93;;;0.70;;
6374;SDS011;35400;45.472;-122.822;2023-07-02T11:56:02;1.33;;;0.70;;
6374;SDS011;35400;45.472;-122.822;2023-07-02T11:58:28;0.60;;;0.60;;
6374;SDS011;35400;45.472;-122.822;2023-07-02T12:00:55;0.60;;;0.53;;
6374;SDS011;35400;45.472;-122.822;2023-07-02T12:03:22;0.93;;;0.60;;
6374;SDS011;35400;45.472;-122.822;2023-07-02T12:05:49;0.70;;;0.70;;
6374;SDS011;35400;45.472;-122.822;2023-07-02T12:08:16;0.67;;;0.63;;
6374;SDS011;35400;45.472;-122.822;2023-07-02T12:10:43;1.33;;;0.60;;
6374;SDS011;35400;45.472;-122.822;2023-07-02T12:13:10;0.53;;;0.53;;
6374;SDS011;35400;45.472;-122.822;2023-07-02T12:15:37;0.70;;;0.50;;
6374;SDS011;35400;45.472;-122.822;2023-07-02T12:18:04;0.63;;;0.60;;
6374;SDS011;35400;45.472;-122.822;2023-07-02T12:20:31;0.50;;;0.50;;
6374;SDS011;35400;45.472;-122.822;2023-07-02T12:22:58;0.60;;;0.40;;
6374;SDS011;35400;45.472;-122.822;2023-07-02T12:25:25;0.90;;;0.70;;
6374;SDS011;35400;45.472;-122.822;2023-07-02T12:27:52;0.97;;;0.70;;
6374;SDS011;35400;45.472;-122.822;2023-07-02T12:30:19;0.53;;;0.53;;
6374;SDS011;35400;45.472;-122.822;2023-07-02T12:32:45;0.50;;;0.50;;
6374;SDS011;35400;45.472;-122.822;2023-07-02T12:35:12;1.13;;;0.67;;
6374;SDS011;35400;45.472;-122.822;2023-07-02T12:37:43;0.73;;;0.40;;
6374;SDS011;35400;45.472;-122.822;2023-07-02T12:40:11;0.60;;;0.50;;
6374;SDS011;35400;45.472;-122.822;2023-07-02T12:42:40;0.50;;;0.50;;
6374;SDS011;35400;45.472;-122.822;2023-07-02T12:45:07;0.60;;;0.60;;
6374;SDS011;35400;45.472;-122.822;2023-07-02T12:47:35;0.70;;;0.70;;
6374;SDS011;35400;45.472;-122.822;2023-07-02T12:50:02;0.77;;;0.40;;
6374;SDS011;35400;45.472;-122.822;2023-07-02T12:52:29;0.80;;;0.53;;
6374;SDS011;35400;45.472;-122.822;2023-07-02T12:54:56;1.00;;;0.70;;
6374;SDS011;35400;45.472;-122.822;2023-07-02T12:57:23;0.50;;;0.50;;
6374;SDS011;35400;45.472;-122.822;2023-07-02T12:59:52;0.90;;;0.80;;
6374;SDS011;35400;45.472;-122.822;2023-07-02T13:02:20;1.00;;;0.90;;
6374;SDS011;35400;45.472;-122.822;2023-07-02T13:04:48;0.80;;;0.80;;
6374;SDS011;35400;45.472;-122.822;2023-07-02T13:07:15;0.50;;;0.47;;
6374;SDS011;35400;45.472;-122.822;2023-07-02T13:09:43;0.77;;;0.77;;
6374;SDS011;35400;45.472;-122.822;2023-07-02T13:12:10;1.10;;;0.70;;
6374;SDS011;35400;45.472;-122.822;2023-07-02T13:14:37;1.00;;;0.53;;
6374;SDS011;35400;45.472;-122.822;2023-07-02T13:17:04;0.63;;;0.47;;
6374;SDS011;35400;45.472;-122.822;2023-07-02T13:19:31;0.80;;;0.70;;
6374;SDS011;35400;45.472;-122.822;2023-07-02T13:21:59;0.57;;;0.57;;
6374;SDS011;35400;45.472;-122.822;2023-07-02T13:24:27;0.50;;;0.50;;
6374;SDS011;35400;45.472;-122.822;2023-07-02T13:26:59;1.03;;;0.60;;
6374;SDS011;35400;45.472;-122.822;2023-07-02T13:29:27;0.93;;;0.63;;
6374;SDS011;35400;45.472;-122.822;2023-07-02T13:31:53;0.70;;;0.60;;
6374;SDS011;35400;45.472;-122.822;2023-07-02T13:34:20;0.70;;;0.70;;
6374;SDS011;35400;45.472;-122.822;2023-07-02T13:36:47;0.77;;;0.60;;
6374;SDS011;35400;45.472;-122.822;2023-07-02T13:39:14;0.70;;;0.70;;
6374;SDS011;35400;45.472;-122.822;2023-07-02T13:41:41;0.60;;;0.60;;
6374;SDS011;35400;45.472;-122.822;2023-07-02T13:44:08;0.67;;;0.67;;
6374;SDS011;35400;45.472;-122.822;2023-07-02T13:46:35;2.07;;;0.53;;
6374;SDS011;35400;45.472;-122.822;2023-07-02T13:49:02;1.63;;;0.67;;
6374;SDS011;35400;45.472;-122.822;2023-07-02T13:51:28;0.80;;;0.60;;
6374;SDS011;35400;45.472;-122.822;2023-07-02T13:53:55;0.50;;;0.50;;
6374;SDS011;35400;45.472;-122.822;2023-07-02T13:56:22;0.70;;;0.60;;
6374;SDS011;35400;45.472;-122.822;2023-07-02T14:01:22;0.97;;;0.70;;
6374;SDS011;35400;45.472;-122.822;2023-07-02T14:03:50;0.67;;;0.57;;
6374;SDS011;35400;45.472;-122.822;2023-07-02T14:06:17;1.13;;;0.53;;
6374;SDS011;35400;45.472;-122.822;2023-07-02T14:08:44;0.60;;;0.53;;
6374;SDS011;35400;45.472;-122.822;2023-07-02T14:11:11;0.60;;;0.60;;
6374;SDS011;35400;45.472;-122.822;2023-07-02T14:13:38;1.27;;;0.80;;
6374;SDS011;35400;45.472;-122.822;2023-07-02T14:16:04;0.60;;;0.60;;
6374;SDS011;35400;45.472;-122.822;2023-07-02T14:18:32;1.57;;;0.70;;
6374;SDS011;35400;45.472;-122.822;2023-07-02T14:20:58;1.00;;;0.67;;
6374;SDS011;35400;45.472;-122.822;2023-07-02T14:23:27;0.93;;;0.93;;
6374;SDS011;35400;45.472;-122.822;2023-07-02T14:25:54;1.47;;;0.70;;
6374;SDS011;35400;45.472;-122.822;2023-07-02T14:28:20;1.07;;;0.63;;
6374;SDS011;35400;45.472;-122.822;2023-07-02T14:30:47;0.80;;;0.70;;
6374;SDS011;35400;45.472;-122.822;2023-07-02T14:33:21;0.70;;;0.50;;
6374;SDS011;35400;45.472;-122.822;2023-07-02T14:35:47;0.70;;;0.70;;